Houston, Texas
Traffic Map
Current Weather Conditions
Houston, Texas
Overcast
Overcast
21°
Feels Like: 21°
Wind Chill: 21° Ceiling: 1600
Heat Index: 21° Visibility: 7mi
Dew Point: 19° Wind: 7mph
Humidity: 90% Direction: 120° (ESE)
Pressure: 29.88in Gusts: 0mph
Raw Report DataKIAH 201042Z 12006KT 7SM BKN016 OVC024 21/19 A2988 RMK AO2 T02110194 $
Traffic Incident Summary
Active as of:
Severity:
Category:
InformationThere was an issue retrieving the traffic information for this location. Please try a different location or try again shortly.
Advertisements
Track Severe Weather on mobile